Time;durP1;ratioP1;P1;durP2;ratioP2;P2;SDS_P1;SDS_P2;PMS_P1;PMS_P2;Temp;Humidity;BMP_temperature;BMP_pressure;BME280_temperature;BME280_humidity;BME280_pressure;Samples;Min_cycle;Max_cycle;Signal;HPM_P1;HPM_P2
2023/08/17 00:00:59;;;;;;;4.50;2.60;;;;;;;22.25;65.15;101369.44;5032422;28;20238;-72
2023/08/17 00:03:26;;;;;;;3.80;2.60;;;;;;;22.22;64.95;101367.50;5034467;28;20210;-73
2023/08/17 00:05:52;;;;;;;3.70;2.53;;;;;;;22.19;65.62;101349.47;5029936;28;20199;-73
2023/08/17 00:08:18;;;;;;;3.65;2.88;;;;;;;22.15;64.90;101346.75;5027762;28;20712;-72
2023/08/17 00:10:45;;;;;;;4.75;3.00;;;;;;;22.14;65.49;101336.41;5034034;28;20732;-73
2023/08/17 00:13:11;;;;;;;4.53;2.80;;;;;;;22.11;65.56;101332.56;5030204;28;20216;-73
2023/08/17 00:15:38;;;;;;;3.10;2.80;;;;;;;22.09;65.42;101337.53;5031186;28;20303;-73
2023/08/17 00:18:06;;;;;;;3.03;2.73;;;;;;;22.06;65.59;101335.63;5031752;28;20195;-73
2023/08/17 00:20:32;;;;;;;3.87;3.10;;;;;;;22.04;65.92;101342.53;5034629;28;20215;-72
2023/08/17 00:22:59;;;;;;;3.63;2.97;;;;;;;21.97;66.57;101339.84;5032062;28;20199;-73
2023/08/17 00:25:25;;;;;;;3.97;2.80;;;;;;;21.95;66.33;101331.38;5030948;28;20211;-73
2023/08/17 00:27:52;;;;;;;3.30;2.37;;;;;;;21.90;66.54;101337.94;5033571;28;20696;-72
2023/08/17 00:30:18;;;;;;;5.27;3.03;;;;;;;21.86;66.79;101333.69;5033921;28;20230;-73
2023/08/17 00:32:45;;;;;;;5.03;2.90;;;;;;;21.82;67.69;101332.91;5033047;28;20245;-73
2023/08/17 00:35:13;;;;;;;3.87;3.23;;;;;;;21.77;67.53;101339.44;5032081;28;20202;-73
2023/08/17 00:37:39;;;;;;;3.33;2.80;;;;;;;21.71;67.42;101340.97;5029326;28;20225;-73
2023/08/17 00:40:07;;;;;;;5.60;2.90;;;;;;;21.66;67.37;101341.31;5030290;28;20248;-72
2023/08/17 00:42:33;;;;;;;4.60;2.87;;;;;;;21.60;66.89;101334.78;5030192;28;20206;-73
2023/08/17 00:44:59;;;;;;;3.40;2.60;;;;;;;21.57;67.65;101340.91;5030745;28;20764;-73
2023/08/17 00:47:26;;;;;;;3.37;2.63;;;;;;;21.53;68.22;101339.38;5036247;28;20203;-72
2023/08/17 00:49:52;;;;;;;5.30;3.37;;;;;;;21.47;67.62;101333.56;5026842;28;20240;-72
2023/08/17 00:52:20;;;;;;;3.30;2.50;;;;;;;21.42;68.08;101333.94;5029042;28;20218;-73
2023/08/17 00:54:46;;;;;;;2.87;2.57;;;;;;;21.37;67.87;101326.25;5029331;28;20210;-71
2023/08/17 00:57:14;;;;;;;3.73;2.70;;;;;;;21.32;68.17;101315.88;5031835;28;20249;-73
2023/08/17 00:59:40;;;;;;;3.50;2.57;;;;;;;21.26;67.82;101295.91;5030707;28;20234;-73
2023/08/17 01:02:07;;;;;;;5.40;2.73;;;;;;;21.23;68.79;101298.59;5028560;28;20212;-72
2023/08/17 01:04:37;;;;;;;3.67;3.00;;;;;;;21.18;68.60;101293.59;5033820;28;20561;-73
2023/08/17 01:07:03;;;;;;;7.10;2.83;;;;;;;21.12;68.77;101295.84;5032509;28;20658;-73
2023/08/17 01:09:31;;;;;;;6.40;2.60;;;;;;;21.10;69.07;101284.72;5032126;28;20225;-73
2023/08/17 01:12:07;;;;;;;4.60;2.63;;;;;;;21.07;69.44;101285.50;5026696;28;20227;-73
2023/08/17 01:14:39;;;;;;;6.10;3.07;;;;;;;21.03;69.70;101275.88;5026198;28;20207;-72
2023/08/17 01:17:13;;;;;;;3.63;3.10;;;;;;;21.00;69.30;101277.41;5025541;28;20211;-73
2023/08/17 01:19:41;;;;;;;7.77;2.77;;;;;;;21.00;69.98;101273.97;5027584;28;20231;-72
2023/08/17 01:22:11;;;;;;;6.97;2.93;;;;;;;20.95;69.15;101277.78;5046457;28;20222;-73
2023/08/17 01:24:39;;;;;;;6.00;3.30;;;;;;;20.93;69.69;101266.66;5033853;28;20211;-73
2023/08/17 01:27:05;;;;;;;7.93;3.27;;;;;;;20.90;69.33;101264.72;5028111;28;20207;-73
2023/08/17 01:29:32;;;;;;;5.37;3.33;;;;;;;20.89;69.47;101263.19;5032055;28;20811;-73
2023/08/17 01:32:04;;;;;;;4.03;2.90;;;;;;;20.86;70.13;101252.41;5026554;28;20701;-73
2023/08/17 01:34:35;;;;;;;3.63;2.93;;;;;;;20.85;69.86;101250.88;5022647;28;20200;-72
2023/08/17 01:37:06;;;;;;;4.60;3.23;;;;;;;20.83;70.14;101251.25;5029213;28;20208;-73
2023/08/17 01:39:38;;;;;;;5.07;3.17;;;;;;;20.80;69.79;101248.53;5036613;28;20234;-73
2023/08/17 01:42:07;;;;;;;6.33;3.10;;;;;;;20.79;70.21;101257.72;5025716;28;20210;-73
2023/08/17 01:44:34;;;;;;;5.27;3.00;;;;;;;20.77;70.68;101254.66;5032287;28;20226;-73
2023/08/17 01:47:00;;;;;;;7.57;3.57;;;;;;;20.75;70.38;101268.44;5030938;28;20306;-73
2023/08/17 01:49:26;;;;;;;5.73;2.60;;;;;;;20.73;70.06;101265.38;5034738;28;20223;-73
2023/08/17 01:51:53;;;;;;;5.00;2.50;;;;;;;20.71;69.83;101266.91;5030460;28;20588;-73
2023/08/17 01:54:20;;;;;;;3.93;2.63;;;;;;;20.71;70.39;101274.97;5035062;28;20271;-73
2023/08/17 01:56:46;;;;;;;3.53;2.67;;;;;;;20.69;69.93;101272.63;5033110;28;20214;-72
2023/08/17 01:59:14;;;;;;;2.60;2.40;;;;;;;20.68;70.42;101281.84;5029882;28;20207;-72
2023/08/17 02:01:40;;;;;;;3.40;2.77;;;;;;;20.67;70.38;101285.69;5031290;28;20574;-73
2023/08/17 02:04:07;;;;;;;3.47;2.33;;;;;;;20.65;70.51;101295.25;5035463;28;20207;-72
2023/08/17 02:06:33;;;;;;;3.10;2.60;;;;;;;20.64;70.66;101299.84;5040066;28;20592;-73
2023/08/17 02:09:00;;;;;;;6.07;2.63;;;;;;;20.63;70.28;101303.66;5033386;28;20294;-73
2023/08/17 02:11:26;;;;;;;3.03;2.40;;;;;;;20.61;70.45;101303.28;5033566;28;20211;-73
2023/08/17 02:13:53;;;;;;;3.80;2.87;;;;;;;20.60;70.36;101309.78;5032582;28;20302;-72
2023/08/17 02:16:21;;;;;;;5.50;2.70;;;;;;;20.55;70.42;101299.41;5038590;28;20203;-72
2023/08/17 02:18:47;;;;;;;4.57;3.00;;;;;;;20.55;70.07;101298.66;5030489;28;20195;-73
2023/08/17 02:21:14;;;;;;;4.23;2.57;;;;;;;20.51;70.79;101306.69;5034686;28;20230;-73
2023/08/17 02:23:40;;;;;;;3.33;2.50;;;;;;;20.50;70.78;101301.69;5039187;28;20208;-73
2023/08/17 02:26:06;;;;;;;4.80;2.83;;;;;;;20.46;71.04;101301.66;5032671;28;20200;-73
2023/08/17 02:28:33;;;;;;;4.17;2.77;;;;;;;20.46;70.91;101307.03;5036646;28;20356;-73
2023/08/17 02:30:59;;;;;;;3.13;2.60;;;;;;;20.45;70.90;101310.09;5034569;28;20246;-73
2023/08/17 02:33:29;;;;;;;3.80;3.03;;;;;;;20.43;71.65;101310.44;5029762;28;20907;-73
2023/08/17 02:35:55;;;;;;;3.83;2.40;;;;;;;20.41;70.77;101302.00;5025939;28;20550;-73
2023/08/17 02:38:21;;;;;;;6.03;2.60;;;;;;;20.39;71.13;101306.97;5026634;28;20208;-73
2023/08/17 02:40:49;;;;;;;3.63;2.63;;;;;;;20.39;71.20;101295.47;5041950;28;20586;-73
2023/08/17 02:43:16;;;;;;;4.13;2.70;;;;;;;20.38;70.89;101288.59;5025921;28;20576;-73
2023/08/17 02:45:42;;;;;;;3.90;2.97;;;;;;;20.36;70.89;101296.22;5030065;28;20776;-73
2023/08/17 02:48:08;;;;;;;4.00;2.90;;;;;;;20.34;71.13;101306.56;5025417;28;20208;-73
2023/08/17 02:50:36;;;;;;;4.83;2.90;;;;;;;20.31;71.10;101294.66;5028783;28;20484;-73
2023/08/17 02:53:02;;;;;;;5.37;2.87;;;;;;;20.29;70.93;101288.88;5027859;28;20224;-73
2023/08/17 02:55:29;;;;;;;2.87;2.50;;;;;;;20.27;72.07;101285.03;5028710;28;20208;-72
2023/08/17 02:57:55;;;;;;;3.07;2.53;;;;;;;20.24;70.99;101283.13;5029440;28;20230;-73
2023/08/17 03:00:22;;;;;;;3.30;2.60;;;;;;;20.22;71.97;101274.66;5029016;28;20310;-73
2023/08/17 03:02:48;;;;;;;2.83;2.47;;;;;;;20.18;71.19;101274.63;5025680;28;20204;-73
2023/08/17 03:05:14;;;;;;;4.30;2.90;;;;;;;20.17;71.87;101283.81;5035403;28;20200;-73
2023/08/17 03:07:42;;;;;;;6.00;3.13;;;;;;;20.15;71.37;101282.66;5030635;28;20211;-73
2023/08/17 03:10:08;;;;;;;4.60;3.10;;;;;;;20.13;71.87;101283.03;5028618;28;20230;-72
2023/08/17 03:12:36;;;;;;;6.10;3.40;;;;;;;20.12;72.07;101278.06;5033387;28;20214;-73
2023/08/17 03:15:04;;;;;;;5.27;2.60;;;;;;;20.08;72.09;101278.00;5032313;28;20319;-73
2023/08/17 03:17:30;;;;;;;5.50;2.93;;;;;;;20.06;71.64;101279.50;5031937;28;20222;-73
2023/08/17 03:19:59;;;;;;;7.23;3.20;;;;;;;20.03;72.47;101283.69;5027481;28;20223;-73
2023/08/17 03:22:25;;;;;;;4.97;3.10;;;;;;;20.01;72.22;101293.25;5030596;28;20572;-72
2023/08/17 03:24:56;;;;;;;6.13;3.00;;;;;;;19.99;72.60;101288.28;5033467;28;20195;-73
2023/08/17 03:27:24;;;;;;;5.97;3.13;;;;;;;19.97;72.14;101309.31;5034708;28;20195;-72
2023/08/17 03:29:50;;;;;;;3.37;2.97;;;;;;;19.96;73.27;101325.75;5028840;28;20314;-73
2023/08/17 03:32:17;;;;;;;5.00;3.10;;;;;;;19.95;73.02;101334.94;5025907;28;20621;-73
2023/08/17 03:34:43;;;;;;;5.03;3.27;;;;;;;19.94;73.00;101325.38;5027924;28;20638;-73
2023/08/17 03:37:10;;;;;;;5.70;3.40;;;;;;;19.93;72.92;101329.19;5022314;28;20215;-73
2023/08/17 03:39:37;;;;;;;5.07;3.20;;;;;;;19.94;73.06;101342.22;5025628;28;20237;-73
2023/08/17 03:42:05;;;;;;;5.03;3.27;;;;;;;19.98;73.34;101348.38;5038273;28;20588;-73
2023/08/17 03:44:31;;;;;;;5.73;3.10;;;;;;;20.00;73.58;101335.38;5021899;28;20284;-73
2023/08/17 03:46:58;;;;;;;4.03;3.20;;;;;;;20.03;72.45;101333.88;5025076;28;20202;-73
2023/08/17 03:49:24;;;;;;;4.30;3.47;;;;;;;20.07;73.20;101332.03;5043672;28;20229;-73
2023/08/17 03:51:50;;;;;;;5.37;3.10;;;;;;;20.09;74.09;101317.13;5031742;28;20294;-72
2023/08/17 03:54:18;;;;;;;4.03;3.33;;;;;;;20.11;73.44;101322.09;5027678;28;20669;-72
2023/08/17 03:56:45;;;;;;;6.17;3.70;;;;;;;20.13;73.64;101327.88;5027247;28;20204;-72
2023/08/17 03:59:13;;;;;;;4.23;3.63;;;;;;;20.15;73.45;101312.16;5026319;28;20231;-72
2023/08/17 04:01:39;;;;;;;4.77;3.53;;;;;;;20.16;74.10;101317.16;5028801;28;20207;-73
2023/08/17 04:04:06;;;;;;;4.07;3.10;;;;;;;20.18;74.64;101330.19;5022776;28;20259;-72
2023/08/17 04:06:32;;;;;;;4.53;3.70;;;;;;;20.17;73.78;101320.63;5028498;28;20223;-72
2023/08/17 04:09:00;;;;;;;4.50;3.80;;;;;;;20.17;74.54;101326.75;5022074;28;20223;-72
2023/08/17 04:11:26;;;;;;;5.43;4.00;;;;;;;20.17;74.23;101320.63;5028529;28;20309;-72
2023/08/17 04:13:53;;;;;;;5.40;3.77;;;;;;;20.18;74.04;101320.22;5025716;28;20234;-73
2023/08/17 04:16:22;;;;;;;5.97;3.83;;;;;;;20.18;74.71;101324.84;5047939;28;20204;-72
2023/08/17 04:18:48;;;;;;;4.63;3.70;;;;;;;20.20;75.11;101319.88;5035475;28;20217;-72
2023/08/17 04:21:14;;;;;;;4.63;3.70;;;;;;;20.20;74.46;101315.28;5025055;28;20228;-73
2023/08/17 04:23:42;;;;;;;4.63;4.07;;;;;;;20.22;75.54;101312.19;5026472;28;20218;-73
2023/08/17 04:26:08;;;;;;;8.33;4.33;;;;;;;20.24;74.39;101326.03;5020063;28;20688;-73
2023/08/17 04:28:35;;;;;;;5.90;4.17;;;;;;;20.28;75.78;101318.78;5027603;28;20226;-72
2023/08/17 04:31:02;;;;;;;5.37;3.97;;;;;;;20.30;74.38;101319.97;5022570;28;20224;-73
2023/08/17 04:33:34;;;;;;;4.97;4.20;;;;;;;20.33;75.11;101329.91;5025400;28;20341;-72
2023/08/17 04:36:01;;;;;;;5.63;3.97;;;;;;;20.37;74.51;101322.69;5035999;28;20208;-73
2023/08/17 04:38:27;;;;;;;5.27;4.07;;;;;;;20.39;74.84;101312.34;5030509;28;20211;-73
2023/08/17 04:40:55;;;;;;;7.77;4.83;;;;;;;20.41;74.96;101317.34;5030855;28;20289;-72
2023/08/17 04:43:22;;;;;;;4.60;4.10;;;;;;;20.43;74.98;101307.75;5025785;28;20219;-72
2023/08/17 04:45:48;;;;;;;8.23;4.47;;;;;;;20.44;74.50;101306.63;5028268;28;20199;-73
2023/08/17 04:48:15;;;;;;;6.73;4.33;;;;;;;20.44;74.91;101303.94;5042639;28;20206;-72
2023/08/17 04:50:43;;;;;;;5.10;4.40;;;;;;;20.47;75.25;101302.41;5023481;28;20229;-73
2023/08/17 04:53:09;;;;;;;4.93;4.43;;;;;;;20.48;74.47;101301.28;5025529;28;20226;-73
2023/08/17 04:55:35;;;;;;;5.80;4.17;;;;;;;20.48;75.01;101307.41;5028386;28;20222;-73
2023/08/17 04:58:02;;;;;;;4.73;4.33;;;;;;;20.49;75.19;101313.56;5018756;28;20223;-73
2023/08/17 05:00:30;;;;;;;4.53;4.10;;;;;;;20.52;75.17;101304.75;5021744;28;20326;-73
2023/08/17 05:02:57;;;;;;;4.50;4.10;;;;;;;20.54;75.20;101300.53;5019084;28;20211;-73
2023/08/17 05:05:26;;;;;;;7.53;4.10;;;;;;;20.57;75.52;101307.06;5026414;28;20207;-72
2023/08/17 05:07:55;;;;;;;7.70;4.20;;;;;;;20.60;74.70;101315.16;5024041;28;20203;-72
2023/08/17 05:10:22;;;;;;;5.00;4.00;;;;;;;20.63;74.57;101309.03;5028632;28;20230;-72
2023/08/17 05:12:48;;;;;;;4.67;4.27;;;;;;;20.67;76.28;101317.09;5030199;28;20234;-73
2023/08/17 05:15:15;;;;;;;6.83;4.60;;;;;;;20.67;76.05;101307.16;5032010;28;20223;-73
2023/08/17 05:17:40;;;;;;;4.83;4.13;;;;;;;20.72;75.79;101316.75;5033791;28;20555;-73
2023/08/17 05:20:10;;;;;;;4.90;4.43;;;;;;;20.74;74.93;101322.53;5029046;28;20231;-72
2023/08/17 05:22:36;;;;;;;5.63;4.30;;;;;;;20.75;75.07;101324.81;5035200;28;20377;-72
2023/08/17 05:25:05;;;;;;;4.77;4.23;;;;;;;20.77;75.75;101319.09;5030848;28;20211;-72
2023/08/17 05:27:34;;;;;;;5.70;4.67;;;;;;;20.78;75.52;101321.41;5033242;28;20238;-73
2023/08/17 05:30:01;;;;;;;6.03;4.30;;;;;;;20.80;75.32;101326.41;5034173;28;20232;-72
2023/08/17 05:32:27;;;;;;;7.33;4.40;;;;;;;20.82;75.09;101324.88;5035882;28;20257;-72
2023/08/17 05:34:54;;;;;;;5.50;4.60;;;;;;;20.83;75.16;101328.31;5032931;28;20219;-73
2023/08/17 05:37:21;;;;;;;6.07;4.60;;;;;;;20.84;75.52;101327.94;5035804;28;20316;-73
2023/08/17 05:39:47;;;;;;;5.57;4.93;;;;;;;20.86;75.66;101324.88;5052739;28;20926;-72
2023/08/17 05:42:16;;;;;;;5.90;4.47;;;;;;;20.86;75.19;101320.28;5034661;28;20223;-73
2023/08/17 05:44:42;;;;;;;6.57;5.23;;;;;;;20.87;75.22;101331.78;5031115;28;20290;-72
2023/08/17 05:47:08;;;;;;;5.73;4.97;;;;;;;20.88;75.66;101319.91;5033812;28;20457;-73
2023/08/17 05:49:35;;;;;;;6.73;4.40;;;;;;;20.88;75.57;101333.31;5034959;28;20266;-72
2023/08/17 05:52:02;;;;;;;6.20;4.50;;;;;;;20.89;75.91;101335.66;5035350;28;20207;-72
2023/08/17 05:54:28;;;;;;;6.07;4.40;;;;;;;20.91;76.23;101337.97;5031177;28;20215;-73
2023/08/17 05:56:54;;;;;;;7.10;4.60;;;;;;;20.92;76.00;101352.94;5037668;28;20206;-72
2023/08/17 05:59:22;;;;;;;6.87;4.93;;;;;;;20.91;75.76;101348.72;5032279;28;20223;-73
2023/08/17 06:01:48;;;;;;;6.80;4.83;;;;;;;20.92;76.03;101352.94;5032429;28;20207;-73
2023/08/17 06:04:15;;;;;;;6.23;4.63;;;;;;;20.94;76.11;101361.38;5031342;28;20200;-72
2023/08/17 06:06:41;;;;;;;6.83;4.90;;;;;;;20.94;76.47;101367.53;5034679;28;20207;-73
2023/08/17 06:09:08;;;;;;;6.53;4.70;;;;;;;20.95;75.98;101371.00;5033634;28;20215;-72
2023/08/17 06:11:35;;;;;;;5.13;4.63;;;;;;;20.97;75.97;101368.69;5034998;28;20214;-73
2023/08/17 06:14:01;;;;;;;6.50;4.73;;;;;;;20.98;76.38;101367.53;5036265;28;20303;-72
2023/08/17 06:16:29;;;;;;;8.50;4.97;;;;;;;20.99;76.28;101372.53;5037813;28;20222;-73
2023/08/17 06:18:55;;;;;;;5.97;4.60;;;;;;;21.02;76.11;101382.53;5033814;28;20204;-73
2023/08/17 06:21:22;;;;;;;7.03;4.90;;;;;;;21.04;76.59;101377.56;5034944;28;20490;-72
2023/08/17 06:23:48;;;;;;;5.73;4.90;;;;;;;21.07;76.63;101379.50;5032341;28;20203;-73
2023/08/17 06:26:14;;;;;;;7.63;4.60;;;;;;;21.10;76.00;101370.69;5028796;28;20219;-73
2023/08/17 06:28:41;;;;;;;5.40;4.30;;;;;;;21.12;75.35;101373.00;5032227;28;20585;-73
2023/08/17 06:31:07;;;;;;;8.73;4.90;;;;;;;21.15;76.19;101374.91;5027518;28;20222;-72
2023/08/17 06:33:35;;;;;;;5.40;4.90;;;;;;;21.17;75.97;101364.56;5031069;28;20215;-73
2023/08/17 06:36:01;;;;;;;6.30;4.97;;;;;;;21.21;75.17;101374.19;5032775;28;20203;-73
2023/08/17 06:38:28;;;;;;;7.40;4.87;;;;;;;21.24;75.35;101368.06;5024612;28;20208;-73
2023/08/17 06:40:54;;;;;;;6.53;5.53;;;;;;;21.29;75.13;101361.53;5030085;28;20227;-73
2023/08/17 06:43:20;;;;;;;6.47;4.60;;;;;;;21.36;76.44;101362.34;5030691;28;20203;-73
2023/08/17 06:45:47;;;;;;;5.00;4.50;;;;;;;21.43;75.58;101361.59;5033080;28;20196;-73
2023/08/17 06:48:13;;;;;;;5.93;5.13;;;;;;;21.50;75.90;101364.31;5030438;28;20555;-73
2023/08/17 06:50:41;;;;;;;5.10;4.57;;;;;;;21.57;75.63;101364.34;5032621;28;20249;-73
2023/08/17 06:53:08;;;;;;;6.60;4.17;;;;;;;21.66;75.52;101367.41;5034856;28;20944;-72
2023/08/17 06:55:34;;;;;;;5.33;4.63;;;;;;;21.73;74.96;101365.53;5031807;28;20293;-73
2023/08/17 06:58:00;;;;;;;5.03;4.45;;;;;;;21.80;74.97;101362.88;5032144;28;20579;-73
2023/08/17 07:00:27;;;;;;;5.75;4.80;;;;;;;21.88;74.59;101364.41;5029601;28;20251;-72
2023/08/17 07:02:53;;;;;;;5.53;4.80;;;;;;;21.94;74.18;101365.56;5035174;28;20294;-73
2023/08/17 07:05:20;;;;;;;5.05;4.65;;;;;;;22.00;74.30;101366.72;5027945;28;20214;-73
2023/08/17 07:07:48;;;;;;;7.57;4.93;;;;;;;22.08;74.14;101368.28;5043170;28;20689;-73
2023/08/17 07:10:14;;;;;;;5.03;4.38;;;;;;;22.14;73.85;101374.81;5027671;28;20316;-73
2023/08/17 07:12:41;;;;;;;4.68;4.18;;;;;;;22.21;73.53;101374.84;5034818;28;20218;-72
2023/08/17 07:15:08;;;;;;;6.57;4.30;;;;;;;22.29;73.37;101368.28;5033728;28;20230;-72
2023/08/17 07:17:36;;;;;;;4.65;4.10;;;;;;;22.43;73.53;101380.97;5033838;28;20777;-73
2023/08/17 07:20:03;;;;;;;5.82;4.20;;;;;;;22.54;72.72;101382.53;5033108;28;20311;-72
2023/08/17 07:22:29;;;;;;;10.95;4.35;;;;;;;22.70;73.03;101369.41;5034225;28;20231;-72
2023/08/17 07:24:57;;;;;;;4.60;4.15;;;;;;;22.88;72.62;101378.25;5033204;28;20207;-73
2023/08/17 07:27:23;;;;;;;7.05;3.90;;;;;;;23.04;72.26;101381.28;5032312;28;20235;-73
2023/08/17 07:29:50;;;;;;;7.63;3.70;;;;;;;23.19;71.00;101387.41;5034879;28;20232;-73
2023/08/17 07:32:16;;;;;;;4.45;3.92;;;;;;;23.33;71.24;101382.72;5034879;28;20199;-73
2023/08/17 07:34:42;;;;;;;4.03;3.40;;;;;;;23.47;70.73;101376.47;5031869;28;20233;-73
2023/08/17 07:37:09;;;;;;;5.65;4.05;;;;;;;23.62;70.73;101387.97;5033680;28;20210;-73
2023/08/17 07:39:35;;;;;;;4.07;3.45;;;;;;;23.74;70.31;101386.34;5035272;28;20261;-72
2023/08/17 07:42:03;;;;;;;4.72;3.80;;;;;;;23.90;70.46;101387.81;5036319;28;20688;-72
2023/08/17 07:44:31;;;;;;;4.93;4.15;;;;;;;24.07;69.64;101401.19;5030045;28;20212;-72
2023/08/17 07:46:57;;;;;;;6.00;4.03;;;;;;;24.23;69.45;101393.38;5030566;28;20213;-72
2023/08/17 07:49:24;;;;;;;3.75;3.45;;;;;;;24.41;68.14;101398.63;5045128;28;20752;-72
2023/08/17 07:51:50;;;;;;;4.15;3.55;;;;;;;24.56;67.41;101402.72;5036720;28;20232;-73
2023/08/17 07:54:17;;;;;;;3.58;3.25;;;;;;;24.66;67.95;101410.00;5032640;28;20215;-73
2023/08/17 07:56:43;;;;;;;5.82;4.03;;;;;;;24.72;67.54;101419.19;5033990;28;20199;-73
2023/08/17 07:59:11;;;;;;;4.38;3.25;;;;;;;24.74;66.07;101416.84;5032256;28;20696;-73
2023/08/17 08:01:39;;;;;;;5.25;3.63;;;;;;;24.71;65.52;101426.53;5033105;28;20202;-73
2023/08/17 08:04:06;;;;;;;3.92;3.55;;;;;;;24.69;65.64;101436.97;5026599;28;20218;-72
2023/08/17 08:06:32;;;;;;;6.20;3.67;;;;;;;24.66;65.30;101435.06;5028495;28;20187;-72
2023/08/17 08:08:59;;;;;;;5.55;4.25;;;;;;;24.64;66.02;101436.63;5031543;28;20210;-72
2023/08/17 08:11:27;;;;;;;4.53;4.05;;;;;;;24.62;66.41;101430.88;5025570;28;20203;-72
2023/08/17 08:13:53;;;;;;;3.72;3.42;;;;;;;24.60;67.10;101422.41;5031638;28;20207;-73
2023/08/17 08:16:21;;;;;;;5.93;3.80;;;;;;;24.55;65.82;101428.97;5029392;28;20216;-73
2023/08/17 08:18:47;;;;;;;4.78;3.80;;;;;;;24.50;66.00;101423.25;5029960;28;20514;-73
2023/08/17 08:21:14;;;;;;;4.00;3.60;;;;;;;24.40;66.12;101419.44;5027644;28;20886;-73
2023/08/17 08:23:41;;;;;;;6.55;3.90;;;;;;;24.43;66.65;101424.06;5030304;28;20821;-73
2023/08/17 08:26:07;;;;;;;4.40;3.83;;;;;;;24.40;66.23;101418.69;5030584;28;20210;-72
2023/08/17 08:28:35;;;;;;;4.25;3.42;;;;;;;24.42;66.81;101417.13;5027038;28;20432;-72
2023/08/17 08:31:02;;;;;;;5.88;3.80;;;;;;;24.44;66.50;101409.38;5027517;28;20242;-72
2023/08/17 08:33:30;;;;;;;4.57;3.65;;;;;;;24.48;66.92;101398.56;5026881;28;20664;-73
2023/08/17 08:35:56;;;;;;;7.03;4.10;;;;;;;24.47;66.29;101395.09;5028284;28;20227;-73
2023/08/17 08:38:22;;;;;;;5.32;3.88;;;;;;;24.56;66.39;101389.22;5026548;28;20275;-73
2023/08/17 08:40:49;;;;;;;3.95;3.65;;;;;;;24.64;66.93;101369.88;5028689;28;20238;-72
2023/08/17 08:43:16;;;;;;;4.90;3.90;;;;;;;24.70;66.02;101372.94;5027220;28;20211;-73
2023/08/17 08:45:44;;;;;;;4.80;3.58;;;;;;;24.70;65.40;101364.81;5026311;28;20286;-73
2023/08/17 08:48:11;;;;;;;4.10;3.70;;;;;;;24.71;65.91;101366.34;5029624;28;20203;-73
2023/08/17 08:50:41;;;;;;;5.80;3.88;;;;;;;24.73;65.97;101366.69;5028508;28;20711;-72
2023/08/17 08:53:14;;;;;;;6.50;3.78;;;;;;;24.72;65.26;101363.22;5030664;28;20947;-72
2023/08/17 08:55:48;;;;;;;3.92;3.53;;;;;;;24.71;64.96;101360.94;5027375;28;20223;-72
2023/08/17 08:58:16;;;;;;;3.80;3.50;;;;;;;24.71;65.50;101352.84;5031207;28;20214;-73
2023/08/17 09:00:47;;;;;;;3.85;3.45;;;;;;;24.69;64.88;101361.34;5026487;28;20223;-73
2023/08/17 09:03:14;;;;;;;3.85;3.55;;;;;;;24.66;64.94;101364.09;5027251;28;20716;-72
2023/08/17 09:05:45;;;;;;;4.30;3.45;;;;;;;24.60;65.50;101357.59;5029928;28;20210;-73
2023/08/17 09:08:14;;;;;;;5.13;3.42;;;;;;;24.59;65.64;101362.22;5029616;28;20207;-72
2023/08/17 09:10:40;;;;;;;4.20;3.80;;;;;;;24.56;65.57;101365.66;5029330;28;20223;-72
2023/08/17 09:13:06;;;;;;;4.28;3.67;;;;;;;24.56;65.10;101370.31;5034198;28;20203;-72
2023/08/17 09:15:33;;;;;;;4.55;4.13;;;;;;;24.52;65.24;101370.38;5038201;28;20223;-73
2023/08/17 09:17:59;;;;;;;6.85;4.00;;;;;;;24.51;65.55;101371.50;5035694;28;20195;-73
2023/08/17 09:20:37;;;;;;;3.90;3.60;;;;;;;24.51;65.41;101376.16;5031256;28;20231;-73
2023/08/17 09:23:05;;;;;;;5.60;4.15;;;;;;;24.53;64.83;101369.19;5036525;28;20211;-73
2023/08/17 09:25:33;;;;;;;5.32;4.15;;;;;;;24.58;65.97;101374.19;5029640;28;20226;-72
2023/08/17 09:28:00;;;;;;;5.28;4.38;;;;;;;24.65;65.04;101374.09;5028071;28;20290;-72
2023/08/17 09:30:26;;;;;;;4.80;4.30;;;;;;;24.72;65.08;101365.19;5031691;28;20231;-72
2023/08/17 09:32:52;;;;;;;5.18;4.18;;;;;;;24.78;65.10;101368.97;5031341;28;20204;-73
2023/08/17 09:35:19;;;;;;;4.60;4.20;;;;;;;24.85;65.31;101352.66;5032036;28;20264;-72
2023/08/17 09:37:45;;;;;;;4.63;4.20;;;;;;;24.90;64.32;101355.72;5029329;28;20199;-73
2023/08/17 09:40:14;;;;;;;4.65;4.07;;;;;;;24.94;64.36;101356.44;5033413;28;20511;-73
2023/08/17 09:42:40;;;;;;;4.47;4.10;;;;;;;24.97;64.65;101350.22;5032724;28;20682;-73
2023/08/17 09:45:08;;;;;;;4.53;4.13;;;;;;;24.99;63.08;101344.41;5036302;28;20261;-72
2023/08/17 09:47:36;;;;;;;4.18;3.78;;;;;;;25.02;63.97;101349.03;5029895;28;20293;-73
2023/08/17 09:50:06;;;;;;;4.50;4.10;;;;;;;25.01;62.74;101344.75;5035605;28;20220;-73
2023/08/17 09:52:33;;;;;;;4.13;3.53;;;;;;;24.98;62.67;101353.69;5035010;28;20204;-73
2023/08/17 09:55:03;;;;;;;3.90;3.60;;;;;;;24.99;62.67;101345.19;5030185;28;20226;-72
2023/08/17 09:57:32;;;;;;;4.93;4.32;;;;;;;25.03;64.17;101339.72;5032665;28;20212;-72
2023/08/17 09:59:58;;;;;;;4.78;4.38;;;;;;;25.05;64.03;101343.56;5033940;28;20235;-73
2023/08/17 10:02:25;;;;;;;5.25;4.75;;;;;;;25.03;64.02;101334.31;5039154;28;20222;-72
2023/08/17 10:04:53;;;;;;;5.55;5.05;;;;;;;25.01;63.95;101325.84;5039650;28;20264;-73
2023/08/17 10:07:21;;;;;;;5.45;4.93;;;;;;;24.97;64.12;101333.25;5037266;28;20207;-73
2023/08/17 10:10:01;;;;;;;4.65;4.25;;;;;;;24.94;63.78;101331.34;5035594;28;20568;-73
2023/08/17 10:12:33;;;;;;;5.10;4.60;;;;;;;24.91;63.94;101340.28;5030789;28;20226;-73
2023/08/17 10:15:04;;;;;;;7.00;4.60;;;;;;;24.87;63.79;101332.19;5032677;28;20215;-72
2023/08/17 10:17:40;;;;;;;4.70;4.22;;;;;;;24.88;63.71;101331.03;5032276;28;20199;-72
2023/08/17 10:20:09;;;;;;;8.43;4.22;;;;;;;24.90;63.54;101325.97;5033796;28;20231;-72
2023/08/17 10:22:44;;;;;;;5.05;4.55;;;;;;;24.93;63.51;101330.59;5025703;28;20211;-72
2023/08/17 10:25:13;;;;;;;7.50;4.47;;;;;;;24.95;62.96;101317.44;5031573;28;20206;-72
2023/08/17 10:27:42;;;;;;;4.35;3.88;;;;;;;24.97;62.57;101325.13;5032296;28;20294;-72
2023/08/17 10:30:09;;;;;;;3.80;3.50;;;;;;;25.01;63.16;101313.09;5034882;28;20246;-72
2023/08/17 10:32:36;;;;;;;5.28;3.85;;;;;;;25.06;62.82;101323.47;5035961;28;20208;-72
2023/08/17 10:35:06;;;;;;;3.67;3.38;;;;;;;25.15;62.55;101323.75;5038063;28;20214;-72
2023/08/17 10:37:33;;;;;;;3.53;3.20;;;;;;;25.22;62.41;101325.59;5035204;28;20201;-73
2023/08/17 10:39:59;;;;;;;3.28;2.97;;;;;;;25.28;62.13;101318.59;5034339;28;20227;-72
2023/08/17 10:42:33;;;;;;;3.35;3.10;;;;;;;25.37;61.37;101316.13;5028588;28;20202;-73
2023/08/17 10:45:01;;;;;;;3.35;3.05;;;;;;;25.44;61.79;101314.09;5031586;28;20216;-72
2023/08/17 10:47:31;;;;;;;3.60;3.30;;;;;;;25.53;61.09;101308.19;5031961;28;20206;-72
2023/08/17 10:49:59;;;;;;;3.70;3.40;;;;;;;25.62;60.45;101303.78;5038267;28;20314;-72
2023/08/17 10:52:28;;;;;;;3.75;3.33;;;;;;;25.72;60.83;101300.16;5033275;28;20207;-72
2023/08/17 10:54:55;;;;;;;5.25;3.58;;;;;;;25.84;60.80;101293.41;5034465;28;20623;-73
2023/08/17 10:57:34;;;;;;;4.22;3.55;;;;;;;25.97;61.01;101307.91;5030154;28;20298;-72
2023/08/17 11:00:17;;;;;;;4.40;4.00;;;;;;;26.10;61.45;101293.38;5030816;28;20237;-73
2023/08/17 11:02:53;;;;;;;4.82;3.58;;;;;;;26.22;59.60;101298.16;5029201;28;20586;-73
2023/08/17 11:05:36;;;;;;;4.20;3.80;;;;;;;26.34;60.08;101299.50;5029240;28;20234;-72
2023/08/17 11:08:02;;;;;;;4.22;3.00;;;;;;;26.45;59.89;101291.94;5031003;28;20282;-72
2023/08/17 11:10:29;;;;;;;3.60;3.30;;;;;;;26.57;59.32;101292.13;5028870;28;20219;-73
2023/08/17 11:12:59;;;;;;;5.68;3.30;;;;;;;26.66;57.46;101284.22;5031725;28;20572;-72
2023/08/17 11:15:37;;;;;;;3.88;3.50;;;;;;;26.69;57.53;101282.63;5030360;28;20232;-72
2023/08/17 11:18:04;;;;;;;4.93;3.90;;;;;;;26.76;57.24;101287.88;5028225;28;20294;-72
2023/08/17 11:20:30;;;;;;;4.25;3.47;;;;;;;26.85;57.87;101283.44;5027582;28;20399;-72
2023/08/17 11:22:58;;;;;;;4.80;3.30;;;;;;;26.91;57.88;101287.19;5032154;28;20191;-72
2023/08/17 11:25:24;;;;;;;4.93;3.10;;;;;;;26.95;57.90;101287.91;5029649;28;20215;-73